createdAt,value
2018-06-10T00:00:38.650Z,12.70
2018-06-10T00:04:42.349Z,16.20
2018-06-10T00:08:46.038Z,15.50
2018-06-10T00:12:49.914Z,17.67
2018-06-10T00:16:53.584Z,16.83
2018-06-10T00:20:57.253Z,15.33
2018-06-10T00:25:00.899Z,17.17
2018-06-10T00:29:09.999Z,20.23
2018-06-10T00:33:13.603Z,20.00
2018-06-10T00:37:17.266Z,19.77
2018-06-10T00:41:20.931Z,17.60
2018-06-10T00:45:24.615Z,20.10
2018-06-10T00:49:28.235Z,20.47
2018-06-10T00:53:31.901Z,21.70
2018-06-10T00:57:35.549Z,28.47
2018-06-10T01:01:39.193Z,24.77
2018-06-10T01:05:42.508Z,29.30
2018-06-10T01:09:46.213Z,29.13
2018-06-10T01:13:49.852Z,32.47
2018-06-10T01:17:53.499Z,27.83
2018-06-10T01:21:57.151Z,27.67
2018-06-10T01:26:00.803Z,29.23
2018-06-10T01:30:04.630Z,33.07
2018-06-10T01:34:08.264Z,28.93
2018-06-10T01:38:11.960Z,36.27
2018-06-10T01:42:15.624Z,25.57
2018-06-10T01:46:19.296Z,28.00
2018-06-10T01:50:22.956Z,27.23
2018-06-10T01:54:26.583Z,26.53
2018-06-10T01:58:30.252Z,26.80
2018-06-10T02:02:33.912Z,26.23
2018-06-10T02:06:37.653Z,25.27
2018-06-10T02:10:41.340Z,22.93
2018-06-10T02:14:44.986Z,25.00
2018-06-10T02:18:48.688Z,23.27
2018-06-10T02:22:52.372Z,23.73
2018-06-10T02:26:56.044Z,23.77
2018-06-10T02:30:59.748Z,25.80
2018-06-10T02:35:03.428Z,21.80
2018-06-10T02:39:07.940Z,22.33
2018-06-10T02:43:11.624Z,24.33
2018-06-10T02:47:15.346Z,23.17
2018-06-10T02:51:19.026Z,21.73
2018-06-10T02:55:22.679Z,23.63
2018-06-10T02:59:26.400Z,24.30
2018-06-10T03:03:30.080Z,27.03
2018-06-10T03:07:33.764Z,23.23
2018-06-10T03:11:37.432Z,29.37
2018-06-10T03:15:41.081Z,22.83
2018-06-10T03:19:44.764Z,20.53
2018-06-10T03:23:48.442Z,24.57
2018-06-10T03:27:52.107Z,21.70
2018-06-10T03:31:55.775Z,22.20
2018-06-10T03:35:59.412Z,20.53
2018-06-10T03:40:03.083Z,21.93
2018-06-10T03:44:06.769Z,21.00
2018-06-10T03:48:10.425Z,25.63
2018-06-10T03:52:14.100Z,23.37
2018-06-10T03:56:17.728Z,25.13
2018-06-10T04:00:21.409Z,26.73
2018-06-10T04:04:25.067Z,22.50
2018-06-10T04:08:28.778Z,24.70
2018-06-10T04:12:32.444Z,22.40
2018-06-10T04:16:36.086Z,26.97
2018-06-10T04:20:39.743Z,24.50
2018-06-10T04:24:43.474Z,29.10
2018-06-10T04:28:47.127Z,27.87
2018-06-10T04:32:50.799Z,25.27
2018-06-10T04:36:54.457Z,28.20
2018-06-10T04:40:58.115Z,22.77
2018-06-10T04:45:01.797Z,26.93
2018-06-10T04:49:05.530Z,29.20
2018-06-10T04:53:09.209Z,30.73
2018-06-10T04:57:14.103Z,30.73
2018-06-10T05:01:17.922Z,24.97
2018-06-10T05:05:21.597Z,27.80
2018-06-10T05:09:25.823Z,29.50
2018-06-10T05:13:29.391Z,29.57
2018-06-10T05:17:33.643Z,31.27
2018-06-10T05:21:37.301Z,31.03
2018-06-10T05:25:41.012Z,27.47
2018-06-10T05:29:44.691Z,29.93
2018-06-10T05:33:48.360Z,31.93
2018-06-10T05:37:52.003Z,33.40
2018-06-10T05:41:55.720Z,28.07
2018-06-10T05:45:59.445Z,32.97
2018-06-10T05:50:03.234Z,29.47
2018-06-10T05:54:06.917Z,31.83
2018-06-10T05:58:10.801Z,32.47
2018-06-10T06:02:14.497Z,33.03
2018-06-10T06:06:18.213Z,32.93
2018-06-10T06:10:21.940Z,33.93
2018-06-10T06:14:25.568Z,27.80
2018-06-10T06:18:29.343Z,30.83
2018-06-10T06:22:33.089Z,34.00
2018-06-10T06:26:36.760Z,31.70
2018-06-10T06:30:40.425Z,32.27
2018-06-10T06:34:44.064Z,33.40
2018-06-10T06:38:47.781Z,34.57
2018-06-10T06:42:51.989Z,28.73
2018-06-10T06:46:55.836Z,29.87
2018-06-10T06:50:59.592Z,26.33
2018-06-10T06:55:03.304Z,28.53
2018-06-10T06:59:06.958Z,29.07
2018-06-10T07:03:10.628Z,25.97
2018-06-10T07:07:14.408Z,31.53
2018-06-10T07:11:18.080Z,25.37
2018-06-10T07:15:21.772Z,28.93
2018-06-10T07:19:25.456Z,28.80
2018-06-10T07:23:29.136Z,31.00
2018-06-10T07:27:32.904Z,28.83
2018-06-10T07:31:36.548Z,36.00
2018-06-10T07:35:40.231Z,26.70
2018-06-10T07:39:44.049Z,27.47
2018-06-10T07:43:47.732Z,30.07
2018-06-10T07:47:51.411Z,27.20
2018-06-10T07:51:55.059Z,29.93
2018-06-10T07:55:58.748Z,27.47
2018-06-10T08:00:02.530Z,28.83
2018-06-10T08:04:06.269Z,25.50
2018-06-10T08:08:09.944Z,21.93
2018-06-10T08:12:13.616Z,24.10
2018-06-10T08:16:17.357Z,30.40
2018-06-10T08:20:21.023Z,28.23
2018-06-10T08:24:24.695Z,25.73
2018-06-10T08:28:28.521Z,26.57
2018-06-10T08:32:32.336Z,27.10
2018-06-10T08:36:36.141Z,29.73
2018-06-10T08:40:39.916Z,24.40
2018-06-10T08:44:43.605Z,24.17
2018-06-10T08:48:47.298Z,26.43
2018-06-10T08:52:51.003Z,27.00
2018-06-10T08:56:54.748Z,25.83
2018-06-10T09:00:58.437Z,26.47
2018-06-10T09:05:02.097Z,21.57
2018-06-10T09:09:08.795Z,22.00
2018-06-10T09:13:12.467Z,27.03
2018-06-10T09:17:16.183Z,29.17
2018-06-10T09:21:19.901Z,30.17
2018-06-10T09:25:23.570Z,24.77
2018-06-10T09:29:27.255Z,23.70
2018-06-10T09:33:30.997Z,24.07
2018-06-10T09:37:34.730Z,24.43
2018-06-10T09:41:38.413Z,22.77
2018-06-10T09:45:42.145Z,20.50
2018-06-10T09:49:45.857Z,20.33
2018-06-10T09:53:49.586Z,20.40
2018-06-10T09:57:53.308Z,19.63
2018-06-10T10:01:56.988Z,21.43
2018-06-10T10:06:00.654Z,19.17
2018-06-10T10:10:04.441Z,18.77
2018-06-10T10:14:08.154Z,17.70
2018-06-10T10:18:12.010Z,20.27
2018-06-10T10:22:15.733Z,15.43
2018-06-10T10:26:19.378Z,19.23
2018-06-10T10:30:23.045Z,21.60
2018-06-10T10:34:26.706Z,17.13
2018-06-10T10:38:30.418Z,17.73
2018-06-10T10:42:34.094Z,19.23
2018-06-10T10:46:37.787Z,16.70
2018-06-10T10:50:41.465Z,18.87
2018-06-10T10:54:45.233Z,18.17
2018-06-10T10:58:48.915Z,17.80
2018-06-10T11:02:52.590Z,17.90
2018-06-10T11:06:56.292Z,18.43
2018-06-10T11:10:59.981Z,17.00
2018-06-10T11:15:03.695Z,18.30
2018-06-10T11:19:07.553Z,18.97
2018-06-10T11:23:11.334Z,20.77
2018-06-10T11:27:15.031Z,17.80
2018-06-10T11:31:18.688Z,18.00
2018-06-10T11:35:22.356Z,16.90
2018-06-10T11:39:26.264Z,17.33
2018-06-10T11:43:31.254Z,17.67
2018-06-10T11:47:34.889Z,14.80
2018-06-10T11:51:38.573Z,17.53
2018-06-10T11:55:42.281Z,19.77
2018-06-10T11:59:45.954Z,20.00
2018-06-10T12:03:49.699Z,18.27
2018-06-10T12:07:53.374Z,16.27
2018-06-10T12:11:57.142Z,13.53
2018-06-10T12:16:00.868Z,12.63
2018-06-10T12:20:04.599Z,13.67
2018-06-10T12:24:08.282Z,16.27
2018-06-10T12:28:11.933Z,14.33
2018-06-10T12:32:15.606Z,14.37
2018-06-10T12:36:19.320Z,13.87
2018-06-10T12:40:23.008Z,13.40
2018-06-10T12:44:26.724Z,13.90
2018-06-10T12:48:30.366Z,17.70
2018-06-10T12:52:34.115Z,16.13
2018-06-10T12:56:37.796Z,17.57
2018-06-10T13:00:41.511Z,22.23
2018-06-10T13:04:45.196Z,18.57
2018-06-10T13:08:48.860Z,18.77
2018-06-10T13:12:52.532Z,18.60
2018-06-10T13:16:56.280Z,22.47
2018-06-10T13:20:59.943Z,22.00
2018-06-10T13:25:03.678Z,20.47
2018-06-10T13:29:07.311Z,20.40
2018-06-10T13:33:10.975Z,20.30
2018-06-10T13:37:14.652Z,22.77
2018-06-10T13:41:18.324Z,22.40
2018-06-10T13:45:21.996Z,19.80
2018-06-10T13:49:25.637Z,22.27
2018-06-10T13:53:29.295Z,21.27
2018-06-10T13:57:32.981Z,22.50
2018-06-10T14:01:36.636Z,21.57
2018-06-10T14:05:40.403Z,24.20
2018-06-10T14:09:44.114Z,20.50
2018-06-10T14:13:54.120Z,21.03
2018-06-10T14:17:57.893Z,18.93
2018-06-10T14:22:01.551Z,20.87
2018-06-10T14:26:05.421Z,17.70
2018-06-10T14:30:09.073Z,17.93
2018-06-10T14:34:12.850Z,14.20
2018-06-10T14:38:16.512Z,18.90
2018-06-10T14:42:20.192Z,18.97
2018-06-10T14:46:23.883Z,16.17
2018-06-10T14:50:27.540Z,19.93
2018-06-10T14:54:31.311Z,15.60
2018-06-10T14:58:34.975Z,18.93
2018-06-10T15:02:38.646Z,15.53
2018-06-10T15:06:42.379Z,14.63
2018-06-10T15:10:46.090Z,18.23
2018-06-10T15:14:49.758Z,14.43
2018-06-10T15:18:53.430Z,16.07
2018-06-10T15:22:57.085Z,13.43
2018-06-10T15:27:00.751Z,16.57
2018-06-10T15:31:04.427Z,14.30
2018-06-10T15:35:08.082Z,15.20
2018-06-10T15:39:11.739Z,15.00
2018-06-10T15:43:15.395Z,16.87
2018-06-10T15:47:19.055Z,18.70
2018-06-10T15:51:22.683Z,16.90
2018-06-10T15:55:26.344Z,15.33
2018-06-10T15:59:30.012Z,18.37
2018-06-10T16:03:33.683Z,14.53
2018-06-10T16:07:37.497Z,16.40
2018-06-10T16:11:41.119Z,14.13
2018-06-10T16:15:44.788Z,12.63
2018-06-10T16:19:48.460Z,12.10
2018-06-10T16:23:52.142Z,14.63
2018-06-10T16:27:55.826Z,13.40
2018-06-10T16:31:59.448Z,14.80
2018-06-10T16:36:03.107Z,13.37
2018-06-10T16:40:06.766Z,13.60
2018-06-10T16:44:10.547Z,14.00
2018-06-10T16:48:14.222Z,13.13
2018-06-10T16:52:17.844Z,16.10
2018-06-10T16:56:21.501Z,12.77
2018-06-10T17:00:25.166Z,18.67
2018-06-10T17:04:28.834Z,14.03
2018-06-10T17:08:32.568Z,16.67
2018-06-10T17:12:36.252Z,10.93
2018-06-10T17:16:39.892Z,14.57
2018-06-10T17:20:43.544Z,14.23
2018-06-10T17:24:47.205Z,12.43
2018-06-10T17:28:50.853Z,13.67
2018-06-10T17:32:54.480Z,10.83
2018-06-10T17:36:58.161Z,9.73
2018-06-10T17:41:01.816Z,11.07
2018-06-10T17:45:05.583Z,12.50
2018-06-10T17:49:09.199Z,10.03
2018-06-10T17:53:12.863Z,11.07
2018-06-10T17:57:16.517Z,9.13
2018-06-10T18:01:20.198Z,12.20
2018-06-10T18:05:23.848Z,10.00
2018-06-10T18:09:27.531Z,9.27
2018-06-10T18:13:31.135Z,8.60
2018-06-10T18:17:34.863Z,12.27
2018-06-10T18:21:38.504Z,9.73
2018-06-10T18:25:42.176Z,8.80
2018-06-10T18:29:45.789Z,12.90
2018-06-10T18:33:49.918Z,13.00
2018-06-10T18:37:53.626Z,10.27
2018-06-10T18:41:57.283Z,9.50
2018-06-10T18:46:00.967Z,10.70
2018-06-10T18:50:04.917Z,13.00
2018-06-10T18:54:08.570Z,13.40
2018-06-10T18:58:12.254Z,12.30
2018-06-10T19:02:15.915Z,14.20
2018-06-10T19:06:19.575Z,12.00
2018-06-10T19:10:23.300Z,13.10
2018-06-10T19:14:27.395Z,11.97
2018-06-10T19:18:31.056Z,10.13
2018-06-10T19:22:34.789Z,12.63
2018-06-10T19:26:38.423Z,13.70
2018-06-10T19:30:42.155Z,10.73
2018-06-10T19:34:45.995Z,14.07
2018-06-10T19:38:49.725Z,12.67
2018-06-10T19:42:53.364Z,11.83
2018-06-10T19:46:57.095Z,12.53
2018-06-10T19:51:00.780Z,15.63
2018-06-10T19:55:04.488Z,14.80
2018-06-10T19:59:08.149Z,15.63
2018-06-10T20:03:11.764Z,12.23
2018-06-10T20:07:15.577Z,15.93
2018-06-10T20:11:19.247Z,18.10
2018-06-10T20:15:22.919Z,17.40
2018-06-10T20:19:26.576Z,14.03
2018-06-10T20:23:30.239Z,16.20
2018-06-10T20:27:33.976Z,13.07
2018-06-10T20:31:37.683Z,14.40
2018-06-10T20:35:41.430Z,14.67
2018-06-10T20:39:45.107Z,18.97
2018-06-10T20:43:48.784Z,15.77
2018-06-10T20:47:52.447Z,15.33
2018-06-10T20:51:56.129Z,16.03
2018-06-10T20:55:59.808Z,16.33
2018-06-10T21:00:03.518Z,14.80
2018-06-10T21:04:07.215Z,16.33
2018-06-10T21:08:10.969Z,14.47
2018-06-10T21:12:14.631Z,17.27
2018-06-10T21:16:18.272Z,16.80
2018-06-10T21:20:21.992Z,16.17
2018-06-10T21:24:25.656Z,16.67
2018-06-10T21:28:29.313Z,18.40
2018-06-10T21:32:32.968Z,26.83
2018-06-10T21:36:36.692Z,16.00
2018-06-10T21:40:40.343Z,17.90
2018-06-10T21:44:44.012Z,13.60
2018-06-10T21:48:47.674Z,17.77
2018-06-10T21:52:51.345Z,16.80
2018-06-10T21:56:55.831Z,18.77
2018-06-10T22:00:59.512Z,16.60
2018-06-10T22:05:03.183Z,18.47
2018-06-10T22:09:08.026Z,18.60
2018-06-10T22:13:11.644Z,16.37
2018-06-10T22:17:15.401Z,18.23
2018-06-10T22:21:19.079Z,18.17
2018-06-10T22:25:22.756Z,23.37
2018-06-10T22:29:26.420Z,19.43
2018-06-10T22:33:30.049Z,17.60
2018-06-10T22:37:33.743Z,16.47
2018-06-10T22:41:37.408Z,20.23
2018-06-10T22:45:40.742Z,17.50
2018-06-10T22:49:44.387Z,19.00
2018-06-10T22:54:24.332Z,19.43
2018-06-10T22:58:27.972Z,17.40
2018-06-10T23:02:31.639Z,19.37
2018-06-10T23:06:35.315Z,16.30
2018-06-10T23:10:38.992Z,18.57
2018-06-10T23:14:42.651Z,19.57
2018-06-10T23:18:46.276Z,17.80
2018-06-10T23:22:49.932Z,20.20
2018-06-10T23:26:53.654Z,19.17
2018-06-10T23:30:57.321Z,16.90
2018-06-10T23:35:00.944Z,18.33
2018-06-10T23:39:06.653Z,17.83
2018-06-10T23:43:10.311Z,18.83
2018-06-10T23:47:14.067Z,17.60
2018-06-10T23:51:17.748Z,15.77
2018-06-10T23:55:21.447Z,17.43
2018-06-10T23:59:25.100Z,16.57
